createdAt,value
2023-05-09T00:01:20.699Z,15.40
2023-05-09T00:03:47.801Z,15.40
2023-05-09T00:06:15.540Z,15.30
2023-05-09T00:08:42.345Z,15.30
2023-05-09T00:11:09.149Z,15.30
2023-05-09T00:13:37.487Z,15.30
2023-05-09T00:16:05.863Z,15.30
2023-05-09T00:18:34.117Z,15.30
2023-05-09T00:21:03.097Z,15.30
2023-05-09T00:23:30.858Z,15.20
2023-05-09T00:25:59.131Z,15.20
2023-05-09T00:28:25.890Z,15.30
2023-05-09T00:30:52.754Z,15.30
2023-05-09T00:33:20.579Z,15.30
2023-05-09T00:35:47.344Z,15.30
2023-05-09T00:38:14.340Z,15.30
2023-05-09T00:40:41.078Z,15.40
2023-05-09T00:43:07.894Z,15.30
2023-05-09T00:45:34.821Z,15.40
2023-05-09T00:48:01.734Z,15.30
2023-05-09T00:52:56.208Z,15.30
2023-05-09T00:55:23.300Z,15.30
2023-05-09T00:57:50.083Z,15.30
2023-05-09T01:00:18.086Z,15.30
2023-05-09T01:02:48.276Z,15.20
2023-05-09T01:05:15.560Z,15.30
2023-05-09T01:08:03.634Z,15.30
2023-05-09T01:10:48.617Z,15.30
2023-05-09T01:13:34.828Z,15.30
2023-05-09T01:16:15.107Z,15.20
2023-05-09T01:18:50.738Z,15.20
2023-05-09T01:21:29.824Z,15.10
2023-05-09T01:24:01.474Z,15.10
2023-05-09T01:27:06.058Z,15.10
2023-05-09T01:29:46.068Z,15.00
2023-05-09T01:32:23.375Z,14.90
2023-05-09T01:34:59.698Z,14.60
2023-05-09T01:37:31.813Z,14.40
2023-05-09T01:40:10.434Z,14.30
2023-05-09T01:42:48.721Z,14.40
2023-05-09T01:45:17.107Z,14.40
2023-05-09T01:47:44.882Z,14.40
2023-05-09T01:50:12.673Z,14.40
2023-05-09T01:52:42.133Z,14.30
2023-05-09T01:55:10.158Z,14.20
2023-05-09T01:57:38.398Z,14.10
2023-05-09T02:00:08.128Z,14.20
2023-05-09T02:02:35.483Z,14.20
2023-05-09T02:05:02.520Z,14.20
2023-05-09T02:07:30.270Z,14.20
2023-05-09T02:09:59.175Z,14.20
2023-05-09T02:12:26.237Z,14.10
2023-05-09T02:14:53.098Z,14.00
2023-05-09T02:17:21.308Z,13.90
2023-05-09T02:19:48.280Z,13.90
2023-05-09T02:22:15.822Z,13.80
2023-05-09T02:24:45.218Z,13.70
2023-05-09T02:27:13.077Z,13.50
2023-05-09T02:29:44.173Z,13.50
2023-05-09T02:32:23.483Z,13.50
2023-05-09T02:34:53.434Z,13.50
2023-05-09T02:37:21.400Z,13.40
2023-05-09T02:39:48.584Z,13.60
2023-05-09T02:42:25.339Z,13.70
2023-05-09T02:44:53.645Z,13.80
2023-05-09T02:47:20.844Z,13.80
2023-05-09T02:49:47.965Z,13.90
2023-05-09T02:52:15.016Z,14.00
2023-05-09T02:54:41.849Z,14.00
2023-05-09T02:57:08.663Z,14.00
2023-05-09T02:59:35.443Z,13.90
2023-05-09T03:02:02.464Z,13.90
2023-05-09T03:04:29.191Z,13.90
2023-05-09T03:06:55.908Z,13.80
2023-05-09T03:11:50.547Z,13.40
2023-05-09T03:14:18.201Z,13.30
2023-05-09T03:16:44.946Z,13.20
2023-05-09T03:19:11.698Z,13.10
2023-05-09T03:21:38.415Z,13.10
2023-05-09T03:24:06.045Z,13.00
2023-05-09T03:26:32.904Z,13.00
2023-05-09T03:31:26.989Z,13.00
2023-05-09T03:36:21.075Z,13.00
2023-05-09T03:38:47.960Z,13.00
2023-05-09T03:41:16.776Z,12.90
2023-05-09T03:43:43.586Z,12.90
2023-05-09T03:46:10.329Z,13.00
2023-05-09T03:48:37.102Z,13.00
2023-05-09T03:51:04.023Z,13.00
2023-05-09T03:53:30.943Z,13.00
2023-05-09T03:55:57.675Z,12.90
2023-05-09T03:58:24.356Z,12.90
2023-05-09T04:00:51.074Z,12.80
2023-05-09T04:03:17.999Z,12.80
2023-05-09T04:05:46.039Z,12.70
2023-05-09T04:08:12.812Z,12.70
2023-05-09T04:10:39.604Z,12.60
2023-05-09T04:13:06.443Z,12.60
2023-05-09T04:15:33.407Z,12.50
2023-05-09T04:18:00.296Z,12.50
2023-05-09T04:20:27.445Z,12.50
2023-05-09T04:22:54.221Z,12.50
2023-05-09T04:25:21.147Z,12.50
2023-05-09T04:27:48.013Z,12.60
2023-05-09T04:30:15.774Z,12.70
2023-05-09T04:32:46.004Z,12.70
2023-05-09T04:35:14.038Z,12.80
2023-05-09T04:37:41.766Z,12.80
2023-05-09T04:40:09.375Z,12.80
2023-05-09T04:42:36.231Z,12.90
2023-05-09T04:45:03.232Z,13.00
2023-05-09T04:47:30.045Z,13.10
2023-05-09T04:49:56.750Z,13.10
2023-05-09T04:52:24.111Z,13.20
2023-05-09T04:54:50.998Z,13.20
2023-05-09T04:57:18.858Z,13.20
2023-05-09T04:59:46.121Z,13.30
2023-05-09T05:02:13.069Z,13.30
2023-05-09T05:04:39.961Z,13.40
2023-05-09T05:07:06.687Z,13.30
2023-05-09T05:09:33.502Z,13.30
2023-05-09T05:14:31.618Z,13.50
2023-05-09T05:16:58.410Z,13.50
2023-05-09T05:19:25.200Z,13.70
2023-05-09T05:21:51.995Z,13.70
2023-05-09T05:24:18.693Z,13.70
2023-05-09T05:26:45.578Z,13.70
2023-05-09T05:29:12.337Z,13.90
2023-05-09T05:31:39.268Z,13.90
2023-05-09T05:34:06.041Z,14.10
2023-05-09T05:36:32.750Z,14.10
2023-05-09T05:41:27.115Z,14.20
2023-05-09T05:43:54.432Z,14.50
2023-05-09T05:46:21.272Z,14.70
2023-05-09T05:48:48.025Z,14.80
2023-05-09T05:51:14.725Z,15.00
2023-05-09T05:53:41.464Z,15.10
2023-05-09T05:56:08.269Z,15.30
2023-05-09T05:58:34.987Z,15.30
2023-05-09T06:01:02.448Z,15.50
2023-05-09T06:03:29.317Z,15.50
2023-05-09T06:05:56.597Z,15.60
2023-05-09T06:08:23.562Z,15.60
2023-05-09T06:10:50.369Z,15.80
2023-05-09T06:13:17.195Z,16.00
2023-05-09T06:15:44.019Z,16.20
2023-05-09T06:18:10.970Z,16.30
2023-05-09T06:20:37.768Z,16.40
2023-05-09T06:23:04.526Z,16.30
2023-05-09T06:25:31.251Z,16.20
2023-05-09T06:27:57.991Z,16.10
2023-05-09T06:30:26.736Z,16.10
2023-05-09T06:32:55.137Z,16.10
2023-05-09T06:35:22.299Z,16.00
2023-05-09T06:37:49.560Z,16.00
2023-05-09T06:40:16.942Z,16.30
2023-05-09T06:42:44.272Z,16.60
2023-05-09T06:45:11.818Z,16.80
2023-05-09T06:47:38.673Z,17.20
2023-05-09T06:50:06.050Z,17.50
2023-05-09T06:52:32.809Z,17.80
2023-05-09T06:54:59.483Z,17.90
2023-05-09T06:57:26.296Z,17.90
2023-05-09T06:59:53.060Z,17.90
2023-05-09T07:02:19.900Z,18.00
2023-05-09T07:04:46.714Z,18.00
2023-05-09T07:07:13.433Z,18.00
2023-05-09T07:09:40.163Z,17.80
2023-05-09T07:12:07.064Z,17.80
2023-05-09T07:14:33.801Z,17.80
2023-05-09T07:17:18.161Z,18.10
2023-05-09T07:19:47.430Z,18.10
2023-05-09T07:22:14.165Z,18.10
2023-05-09T07:24:40.891Z,18.10
2023-05-09T07:27:07.603Z,18.00
2023-05-09T07:29:34.329Z,18.10
2023-05-09T07:32:01.273Z,18.30
2023-05-09T07:34:29.648Z,18.50
2023-05-09T07:36:56.461Z,18.60
2023-05-09T07:39:23.320Z,18.80
2023-05-09T07:41:50.042Z,18.80
2023-05-09T07:44:16.735Z,18.80
2023-05-09T07:46:43.505Z,18.90
2023-05-09T07:49:10.243Z,18.80
2023-05-09T07:51:37.008Z,18.90
2023-05-09T07:54:03.857Z,18.90
2023-05-09T07:56:30.608Z,18.70
2023-05-09T07:58:57.331Z,18.80
2023-05-09T08:01:24.120Z,18.70
2023-05-09T08:03:51.050Z,18.70
2023-05-09T08:06:17.903Z,18.80
2023-05-09T08:08:44.606Z,18.70
2023-05-09T08:11:11.385Z,19.00
2023-05-09T08:13:38.227Z,18.80
2023-05-09T08:16:05.813Z,18.60
2023-05-09T08:18:32.630Z,18.80
2023-05-09T08:20:59.749Z,19.10
2023-05-09T08:23:27.168Z,19.30
2023-05-09T08:25:54.701Z,19.40
2023-05-09T08:28:24.709Z,19.60
2023-05-09T08:30:52.132Z,19.90
2023-05-09T08:33:19.162Z,19.90
2023-05-09T08:35:50.129Z,20.20
2023-05-09T08:38:16.828Z,20.70
2023-05-09T08:40:43.610Z,20.60
2023-05-09T08:43:11.963Z,20.80
2023-05-09T08:45:47.682Z,21.00
2023-05-09T08:48:16.980Z,20.90
2023-05-09T08:50:44.367Z,20.90
2023-05-09T08:53:12.394Z,20.20
2023-05-09T08:55:39.570Z,19.90
2023-05-09T08:58:07.160Z,19.90
2023-05-09T09:00:34.567Z,19.90
2023-05-09T09:03:04.093Z,19.60
2023-05-09T09:05:41.240Z,19.70
2023-05-09T09:08:09.841Z,19.80
2023-05-09T09:10:41.926Z,19.90
2023-05-09T09:13:11.332Z,19.80
2023-05-09T09:15:40.583Z,19.80
2023-05-09T09:18:13.125Z,19.80
2023-05-09T09:20:49.819Z,19.60
2023-05-09T09:23:21.053Z,19.70
2023-05-09T09:25:48.371Z,19.70
2023-05-09T09:28:15.698Z,20.10
2023-05-09T09:30:48.220Z,20.20
2023-05-09T09:33:26.401Z,20.20
2023-05-09T09:35:55.077Z,20.30
2023-05-09T09:38:24.049Z,20.00
2023-05-09T09:40:55.937Z,19.90
2023-05-09T09:43:30.179Z,19.70
2023-05-09T09:45:57.776Z,19.80
2023-05-09T09:48:32.201Z,19.70
2023-05-09T09:51:10.257Z,19.50
2023-05-09T09:53:43.669Z,19.50
2023-05-09T09:56:11.052Z,19.30
2023-05-09T09:58:37.800Z,19.30
2023-05-09T10:01:14.177Z,19.40
2023-05-09T10:03:43.208Z,19.40
2023-05-09T10:06:14.685Z,19.40
2023-05-09T10:08:43.465Z,19.50
2023-05-09T10:11:10.905Z,19.70
2023-05-09T10:13:38.773Z,19.60
2023-05-09T10:16:06.869Z,19.40
2023-05-09T10:18:34.635Z,19.30
2023-05-09T10:23:32.699Z,19.60
2023-05-09T10:26:27.567Z,19.60
2023-05-09T10:28:59.405Z,19.80
2023-05-09T10:31:28.186Z,20.00
2023-05-09T10:33:58.742Z,20.20
2023-05-09T10:36:25.969Z,20.20
2023-05-09T10:38:55.299Z,20.20
2023-05-09T10:41:23.717Z,20.20
2023-05-09T10:43:51.143Z,20.30
2023-05-09T10:46:18.384Z,20.30
2023-05-09T10:48:46.093Z,20.50
2023-05-09T10:51:13.337Z,20.50
2023-05-09T10:53:48.830Z,20.40
2023-05-09T10:56:39.777Z,20.40
2023-05-09T10:59:06.601Z,20.30
2023-05-09T11:01:37.367Z,20.40
2023-05-09T11:04:12.722Z,20.70
2023-05-09T11:06:46.191Z,20.70
2023-05-09T11:09:41.263Z,20.90
2023-05-09T11:12:09.829Z,20.90
2023-05-09T11:14:46.699Z,21.80
2023-05-09T11:17:22.698Z,22.10
2023-05-09T11:19:49.517Z,22.30
2023-05-09T11:22:17.348Z,22.20
2023-05-09T11:24:51.910Z,22.10
2023-05-09T11:27:23.471Z,21.90
2023-05-09T11:29:52.164Z,21.90
2023-05-09T11:32:20.068Z,22.10
2023-05-09T11:34:47.367Z,22.20
2023-05-09T11:37:16.932Z,22.20
2023-05-09T11:40:05.891Z,22.10
2023-05-09T11:42:32.784Z,22.20
2023-05-09T11:44:59.762Z,21.90
2023-05-09T11:47:28.894Z,21.90
2023-05-09T11:49:56.004Z,21.90
2023-05-09T11:54:50.720Z,22.10
2023-05-09T11:57:17.947Z,22.30
2023-05-09T11:59:45.670Z,22.40
2023-05-09T12:02:13.072Z,22.50
2023-05-09T12:04:40.105Z,22.30
2023-05-09T12:07:07.177Z,22.50
2023-05-09T12:09:37.839Z,22.50
2023-05-09T12:12:14.443Z,22.70
2023-05-09T12:14:41.880Z,22.70
2023-05-09T12:17:09.532Z,22.90
2023-05-09T12:19:36.961Z,23.00
2023-05-09T12:22:06.588Z,23.10
2023-05-09T12:24:36.649Z,23.00
2023-05-09T12:27:04.923Z,22.60
2023-05-09T12:29:31.796Z,22.40
2023-05-09T12:31:58.781Z,22.50
2023-05-09T12:34:25.596Z,22.70
2023-05-09T12:36:53.200Z,22.60
2023-05-09T12:39:24.451Z,22.40
2023-05-09T12:42:01.102Z,22.40
2023-05-09T12:44:29.896Z,22.40
2023-05-09T12:46:58.132Z,22.30
2023-05-09T12:49:25.625Z,22.10
2023-05-09T12:51:53.631Z,22.00
2023-05-09T12:54:24.786Z,21.90
2023-05-09T12:56:53.213Z,22.00
2023-05-09T12:59:28.205Z,22.00
2023-05-09T13:01:59.633Z,21.90
2023-05-09T13:04:28.253Z,21.80
2023-05-09T13:06:57.642Z,22.00
2023-05-09T13:09:26.492Z,22.00
2023-05-09T13:11:53.705Z,22.10
2023-05-09T13:14:22.341Z,22.10
2023-05-09T13:16:49.197Z,22.20
2023-05-09T13:19:16.319Z,22.20
2023-05-09T13:21:43.098Z,22.10
2023-05-09T13:24:09.791Z,22.10
2023-05-09T13:26:36.572Z,22.30
2023-05-09T13:29:03.477Z,22.30
2023-05-09T13:31:31.089Z,22.50
2023-05-09T13:33:57.805Z,22.60
2023-05-09T13:36:24.587Z,22.60
2023-05-09T13:38:51.397Z,22.30
2023-05-09T13:41:22.131Z,21.90
2023-05-09T13:43:48.900Z,21.80
2023-05-09T13:46:15.918Z,21.90
2023-05-09T13:48:42.902Z,21.90
2023-05-09T13:51:09.984Z,21.90
2023-05-09T13:53:38.797Z,22.00
2023-05-09T13:56:07.689Z,22.00
2023-05-09T13:58:34.668Z,21.90
2023-05-09T14:01:01.638Z,22.00
2023-05-09T14:03:28.487Z,22.00
2023-05-09T14:05:55.335Z,22.10
2023-05-09T14:08:22.188Z,22.10
2023-05-09T14:10:49.057Z,22.30
2023-05-09T14:13:16.172Z,22.40
2023-05-09T14:15:43.022Z,22.40
2023-05-09T14:18:09.969Z,22.70
2023-05-09T14:20:37.558Z,23.00
2023-05-09T14:23:04.428Z,22.90
2023-05-09T14:25:31.680Z,22.70
2023-05-09T14:27:59.522Z,22.50
2023-05-09T14:30:26.676Z,22.20
2023-05-09T14:32:53.577Z,22.20
2023-05-09T14:35:20.446Z,22.20
2023-05-09T14:37:47.503Z,22.30
2023-05-09T14:40:14.781Z,22.30
2023-05-09T14:42:42.274Z,22.20
2023-05-09T14:45:12.644Z,22.10
2023-05-09T14:47:40.188Z,22.10
2023-05-09T14:50:10.062Z,22.10
2023-05-09T14:52:36.896Z,22.20
2023-05-09T14:55:03.796Z,22.20
2023-05-09T14:57:30.574Z,22.10
2023-05-09T15:00:03.111Z,22.00
2023-05-09T15:02:35.976Z,21.90
2023-05-09T15:05:03.169Z,21.70
2023-05-09T15:07:29.905Z,21.70
2023-05-09T15:09:56.733Z,21.70
2023-05-09T15:12:23.449Z,21.70
2023-05-09T15:14:53.833Z,21.80
2023-05-09T15:17:21.130Z,21.90
2023-05-09T15:19:48.237Z,21.90
2023-05-09T15:22:15.010Z,21.80
2023-05-09T15:24:44.790Z,21.80
2023-05-09T15:27:11.627Z,21.80
2023-05-09T15:29:38.706Z,21.70
2023-05-09T15:32:05.678Z,21.70
2023-05-09T15:34:32.423Z,21.70
2023-05-09T15:36:59.349Z,21.60
2023-05-09T15:39:27.152Z,21.50
2023-05-09T15:41:54.073Z,21.40
2023-05-09T15:44:20.872Z,21.40
2023-05-09T15:46:48.240Z,21.40
2023-05-09T15:49:14.990Z,21.40
2023-05-09T15:51:42.305Z,21.30
2023-05-09T15:54:09.493Z,21.30
2023-05-09T15:56:36.299Z,21.30
2023-05-09T15:59:03.457Z,21.40
2023-05-09T16:01:30.241Z,21.40
2023-05-09T16:03:57.164Z,21.40
2023-05-09T16:06:23.940Z,21.40
2023-05-09T16:08:50.703Z,21.40
2023-05-09T16:11:17.515Z,21.30
2023-05-09T16:13:46.501Z,21.20
2023-05-09T16:16:13.318Z,21.20
2023-05-09T16:18:40.041Z,21.20
2023-05-09T16:21:06.868Z,21.20
2023-05-09T16:23:33.705Z,21.20
2023-05-09T16:26:00.530Z,21.10
2023-05-09T16:28:28.129Z,21.10
2023-05-09T16:30:54.937Z,21.00
2023-05-09T16:33:21.837Z,20.90
2023-05-09T16:35:48.788Z,20.90
2023-05-09T16:38:15.555Z,20.90
2023-05-09T16:40:42.393Z,20.90
2023-05-09T16:43:09.193Z,20.90
2023-05-09T16:45:36.127Z,20.80
2023-05-09T16:48:02.929Z,20.80
2023-05-09T16:50:29.872Z,20.80
2023-05-09T16:52:56.637Z,20.80
2023-05-09T16:55:23.490Z,20.80
2023-05-09T16:57:50.337Z,20.70
2023-05-09T17:00:18.140Z,20.70
2023-05-09T17:02:44.985Z,20.80
2023-05-09T17:05:11.849Z,20.70
2023-05-09T17:07:38.752Z,20.70
2023-05-09T17:10:05.919Z,20.70
2023-05-09T17:12:32.742Z,20.70
2023-05-09T17:14:59.467Z,20.70
2023-05-09T17:17:26.368Z,20.70
2023-05-09T17:19:53.142Z,20.70
2023-05-09T17:22:19.841Z,20.70
2023-05-09T17:24:46.588Z,20.70
2023-05-09T17:27:13.300Z,20.70
2023-05-09T17:29:40.052Z,20.70
2023-05-09T17:32:06.966Z,20.50
2023-05-09T17:34:33.708Z,20.40
2023-05-09T17:37:02.290Z,20.30
2023-05-09T17:39:29.269Z,20.20
2023-05-09T17:41:56.032Z,20.20
2023-05-09T17:44:22.811Z,20.20
2023-05-09T17:46:49.831Z,20.10
2023-05-09T17:49:17.048Z,20.10
2023-05-09T17:51:43.911Z,20.10
2023-05-09T17:54:11.719Z,20.00
2023-05-09T17:56:38.594Z,19.90
2023-05-09T17:59:05.500Z,19.90
2023-05-09T18:01:32.369Z,19.90
2023-05-09T18:03:59.274Z,19.80
2023-05-09T18:06:26.320Z,19.80
2023-05-09T18:08:53.176Z,19.40
2023-05-09T18:11:20.128Z,19.40
2023-05-09T18:13:47.220Z,19.20
2023-05-09T18:16:14.015Z,19.20
2023-05-09T18:18:40.805Z,19.10
2023-05-09T18:21:09.454Z,19.00
2023-05-09T18:23:36.281Z,19.00
2023-05-09T18:26:03.365Z,18.80
2023-05-09T18:28:30.627Z,18.60
2023-05-09T18:30:58.803Z,18.60
2023-05-09T18:33:27.967Z,18.60
2023-05-09T18:35:55.436Z,18.60
2023-05-09T18:38:22.754Z,18.50
2023-05-09T18:40:51.748Z,18.40
2023-05-09T18:43:20.679Z,18.40
2023-05-09T18:45:48.065Z,18.40
2023-05-09T18:48:17.770Z,18.40
2023-05-09T18:50:44.813Z,18.40
2023-05-09T18:53:11.747Z,18.40
2023-05-09T18:55:38.897Z,18.30
2023-05-09T18:58:07.077Z,18.30
2023-05-09T19:00:34.892Z,18.20
2023-05-09T19:03:01.817Z,18.20
2023-05-09T19:05:28.677Z,18.20
2023-05-09T19:07:55.447Z,18.20
2023-05-09T19:10:22.260Z,18.20
2023-05-09T19:12:49.467Z,18.20
2023-05-09T19:15:16.382Z,18.20
2023-05-09T19:17:43.521Z,18.20
2023-05-09T19:20:11.111Z,18.20
2023-05-09T19:22:39.133Z,18.10
2023-05-09T19:25:06.281Z,18.10
2023-05-09T19:27:33.061Z,18.10
2023-05-09T19:29:59.784Z,18.10
2023-05-09T19:32:26.666Z,18.00
2023-05-09T19:34:53.451Z,18.00
2023-05-09T19:37:20.281Z,18.10
2023-05-09T19:39:47.006Z,18.00
2023-05-09T19:42:13.766Z,17.70
2023-05-09T19:44:40.512Z,17.60
2023-05-09T19:47:09.016Z,17.70
2023-05-09T19:49:35.904Z,17.70
2023-05-09T19:52:02.686Z,17.60
2023-05-09T19:54:31.130Z,17.60
2023-05-09T19:56:57.885Z,17.60
2023-05-09T19:59:24.739Z,17.60
2023-05-09T20:01:51.633Z,17.70
2023-05-09T20:04:21.770Z,17.60
2023-05-09T20:06:48.596Z,17.60
2023-05-09T20:09:17.837Z,17.50
2023-05-09T20:11:44.547Z,17.40
2023-05-09T20:14:11.485Z,17.40
2023-05-09T20:16:38.386Z,17.40
2023-05-09T20:19:07.598Z,17.30
2023-05-09T20:21:34.441Z,17.20
2023-05-09T20:24:01.638Z,17.20
2023-05-09T20:26:29.633Z,17.20
2023-05-09T20:29:01.260Z,17.10
2023-05-09T20:31:29.201Z,17.10
2023-05-09T20:33:57.476Z,17.00
2023-05-09T20:36:25.309Z,17.10
2023-05-09T20:38:52.166Z,17.00
2023-05-09T20:41:19.002Z,16.90
2023-05-09T20:43:45.822Z,16.80
2023-05-09T20:46:13.953Z,16.80
2023-05-09T20:48:40.887Z,16.80
2023-05-09T20:51:07.711Z,16.80
2023-05-09T20:53:35.047Z,16.80
2023-05-09T20:56:02.136Z,16.90
2023-05-09T20:58:32.653Z,16.90
2023-05-09T21:00:59.595Z,16.80
2023-05-09T21:03:26.525Z,16.80
2023-05-09T21:05:53.922Z,16.70
2023-05-09T21:08:20.737Z,16.70
2023-05-09T21:10:47.502Z,16.70
2023-05-09T21:13:14.393Z,16.70
2023-05-09T21:15:41.157Z,16.70
2023-05-09T21:18:08.086Z,16.70
2023-05-09T21:20:34.961Z,16.70
2023-05-09T21:23:01.763Z,16.70
2023-05-09T21:25:28.506Z,16.70
2023-05-09T21:27:56.291Z,16.70
2023-05-09T21:30:23.105Z,16.60
2023-05-09T21:32:52.619Z,16.70
2023-05-09T21:35:19.442Z,16.70
2023-05-09T21:37:46.697Z,16.70
2023-05-09T21:40:13.990Z,16.70
2023-05-09T21:42:41.700Z,16.70
2023-05-09T21:45:08.781Z,16.70
2023-05-09T21:47:35.833Z,16.70
2023-05-09T21:50:04.230Z,16.70
2023-05-09T21:52:31.185Z,16.70
2023-05-09T21:54:58.228Z,16.70
2023-05-09T21:57:25.066Z,16.50
2023-05-09T21:59:53.422Z,16.50
2023-05-09T22:02:20.217Z,16.50
2023-05-09T22:04:47.012Z,16.50
2023-05-09T22:07:13.830Z,16.30
2023-05-09T22:09:40.526Z,16.20
2023-05-09T22:12:07.490Z,16.20
2023-05-09T22:14:42.004Z,16.20
2023-05-09T22:17:15.565Z,16.20
2023-05-09T22:19:42.860Z,16.20
2023-05-09T22:22:09.743Z,16.10
2023-05-09T22:24:37.510Z,16.20
2023-05-09T22:27:04.272Z,16.20
2023-05-09T22:29:34.116Z,16.20
2023-05-09T22:32:02.043Z,16.10
2023-05-09T22:34:29.038Z,16.00
2023-05-09T22:36:55.809Z,15.80
2023-05-09T22:39:22.512Z,15.70
2023-05-09T22:41:49.838Z,15.60
2023-05-09T22:44:16.651Z,15.60
2023-05-09T22:46:43.378Z,15.60
2023-05-09T22:49:10.119Z,15.60
2023-05-09T22:51:37.058Z,15.60
2023-05-09T22:54:03.917Z,15.60
2023-05-09T22:56:30.688Z,15.60
2023-05-09T22:58:57.569Z,15.60
2023-05-09T23:01:24.368Z,15.70
2023-05-09T23:03:51.144Z,15.70
2023-05-09T23:06:17.833Z,15.60
2023-05-09T23:08:45.173Z,15.60
2023-05-09T23:11:12.105Z,15.60
2023-05-09T23:13:39.012Z,15.60
2023-05-09T23:16:06.003Z,15.60
2023-05-09T23:20:59.892Z,15.60
2023-05-09T23:23:26.568Z,15.60
2023-05-09T23:25:53.361Z,15.60
2023-05-09T23:28:25.214Z,15.60
2023-05-09T23:30:53.617Z,15.50
2023-05-09T23:33:20.472Z,15.50
2023-05-09T23:35:47.960Z,15.50
2023-05-09T23:38:14.663Z,15.50
2023-05-09T23:40:45.293Z,15.50
2023-05-09T23:43:13.261Z,15.40
2023-05-09T23:45:40.108Z,15.30
2023-05-09T23:48:07.675Z,15.30
2023-05-09T23:50:34.438Z,15.30
2023-05-09T23:53:01.195Z,15.30
2023-05-09T23:55:27.878Z,15.30
